Ana Sayfa
METAR-TAF:

METAR-TAF

Havaalanları :

Nalçik Havalimanı

Nalçik, Rusya

Enlem: 43-30-46N, Boylam: 043-38-12E, yükseklik: 445 m

Güncel hava durumu gözlemi

Rapor saat 09:30 UTC de 37 dakika önce yapıldı.
Rüzgar doğu/kuzeydoğudan 2 kt
Sıcaklık 3°C
Nem 100%
Basınç 1023 hPa
Görüş mesafesi: 0400 m
sis

METAR: URMN 190930Z 07001MPS 0400 FG VV002 03/03 Q1023 R24/110060 NOSIG RMK QBB060 MT OBSC OBST OBSC QFE730

Saat: 13:07 (10:07 UTC)

Tahmin

Rapor saat 08:00 UTC de 2 saat ve 7 dakika önce yapıldı.
Ayın 19'si saat 09 UTC'den ayın 19'si saat 18 UTC'ye kadar geçerli Tahmin
Rüzgar kuzeydoğudan 6 kt
Görüş mesafesi: 2100 m
400 ft yükseklikte çok bulutlu
Pus
Geçici
ayın 19'si saat 09 UTC'den ayın 19'si saat 15 UTC'ye kadar
Görüş mesafesi: 0500 m
200 ft yükseklikte çok bulutlu
sis

TAF: URMN 190800Z 1909/1918 04003MPS 2100 BR OVC004 TEMPO 1909/1915 0500 FG OVC002

4.000'den fazla havaalanı için hava durumu gözlemleri ve tahminleri (METAR ve TAF raporları).

Kullanılabilir istasyonlar harita üzerinde sarı ve kırmızı noktalarla gösterilir.

İstasyonun adını görmek için fareyi noktanın üzerinde gezdirin.

Sonrasında hava gözlem ve tahminlerini görmek için tıklayın.

Haritayı değiştirmek için: yaklaştırmak için siyah artı işaretli yeşil düğmeye ve uzaklaştırmak için de eksi işaretli düğmeye hızla tıklayın; bitişik haritalar için yeşil okları kullanın.


METAR-TAF: